Latest Weather Observations for Moomba Airport

IDS60801

Issued at 3:01 pm CST Tuesday 26 September 2017 (issued every 30 minutes, with the page automatically refreshed every 10 minutes)

About weather observations | Map of weather stations | Latest weather observations for SA | Other Formats
Station Details ID: 017123 Name: MOOMBA AIRPORT Lat: -28.10 Lon: 140.20 Height: 37.8 m
Data from the previous 72 hours. | See also: Recent months at Moomba Airport
Date/Time
CST
Temp
°C
App
Temp
°C
Dew
Point
°C
Rel
Hum
%
Delta-T
°C
Wind Press
QNH
hPa
Press
MSL
hPa
Rain since
9am
mm
Dir  Spd
km/h
Gust
km/h
Spd
kts
Gust
kts
26/03:00pm 36.8 31.0 -1.2 9 18.7 WNW 19 24 10 13 1006.1 1006.0 0.0
26/02:30pm 36.4 30.8 -0.1 10 18.2 WNW 19 28 10 15 1006.2 1006.1 0.0
26/02:00pm 36.4 31.6 -0.1 10 18.2 WNW 15 28 8 15 1006.6 1006.5 0.0
26/01:30pm 36.0 31.7 0.9 11 17.8 N 13 20 7 11 1007.0 1006.9 0.0
26/01:00pm 35.2 30.8 0.3 11 17.4 N 13 20 7 11 1007.5 1007.4 0.0
26/12:30pm 34.2 29.9 0.8 12 16.7 NE 13 19 7 10 1007.9 1007.8 0.0
26/12:00pm 33.8 29.0 0.5 12 16.5 ENE 15 22 8 12 1008.3 1008.2 0.0
26/11:30am 33.1 27.5 -0.1 12 16.2 ENE 19 26 10 14 1008.5 1008.4 0.0
26/11:00am 31.6 25.0 -0.1 13 15.3 ENE 24 32 13 17 1008.8 1008.7 0.0
26/10:30am 30.3 23.2 -1.2 13 14.8 E 26 33 14 18 1009.1 1009.0 0.0
26/10:00am 28.9 21.4 -1.2 14 14.0 E 28 33 15 18 1009.6 1009.5 0.0
26/09:30am 27.9 19.9 -2.0 14 13.6 E 30 39 16 21 1009.7 1009.6 0.0
26/09:00am 26.3 17.7 -2.4 15 12.8 ENE 33 43 18 23 1009.9 1009.8 0.0
26/08:30am 25.1 16.7 -2.5 16 12.2 E 32 39 17 21 1010.1 1010.0 0.0
26/08:00am 23.7 15.6 -2.8 17 11.5 E 30 39 16 21 1010.3 1010.2 0.0
26/07:30am 22.3 15.1 -2.4 19 10.6 E 26 33 14 18 1010.3 1010.2 0.0
26/07:00am 20.6 14.5 -2.5 21 9.8 E 20 24 11 13 1009.9 1009.8 0.0
26/06:30am 19.4 13.4 -2.8 22 9.2 ESE 19 22 10 12 1009.8 1009.7 0.0
26/06:00am 18.8 12.9 -2.2 24 8.8 ESE 19 22 10 12 1009.5 1009.4 0.0
26/05:30am 18.8 13.3 -2.2 24 8.8 ESE 17 20 9 11 1009.3 1009.2 0.0
26/05:00am 19.3 13.9 -1.7 24 8.9 ESE 17 22 9 12 1009.2 1009.1 0.0
26/04:30am 20.0 15.4 -1.2 24 9.2 SE 13 20 7 11 1009.0 1008.9 0.0
26/04:00am 20.2 15.2 -1.0 24 9.2 SE 15 20 8 11 1008.6 1008.5 0.0
26/03:30am 20.1 14.7 -1.1 24 9.2 ESE 17 20 9 11 1008.5 1008.4 0.0
26/03:00am 20.4 14.4 -1.4 23 9.4 E 20 26 11 14 1008.4 1008.3 0.0
26/02:30am 20.7 14.7 -1.8 22 9.7 E 20 28 11 15 1008.5 1008.4 0.0
26/02:00am 21.1 14.0 -1.4 22 9.8 E 26 33 14 18 1008.2 1008.1 0.0
26/01:30am 21.5 14.3 -1.7 21 10.1 ESE 26 32 14 17 1008.7 1008.6 0.0
26/01:00am 21.5 14.8 -1.1 22 9.9 ESE 24 32 13 17 1008.8 1008.7 0.0
26/12:30am 21.7 15.0 -0.9 22 10.0 ESE 24 30 13 16 1009.3 1009.2 0.0
26/12:00am 21.4 15.6 0.0 24 9.6 ESE 20 28 11 15 1009.8 1009.7 0.0
 
Date/Time
CST
Temp
°C
App
Temp
°C
Dew
Point
°C
Rel
Hum
%
Delta-T
°C
Wind Press
QNH
hPa
Press
MSL
hPa
Rain since
9am
mm
Dir  Spd
km/h
Gust
km/h
Spd
kts
Gust
kts
25/11:30pm 22.4 16.2 -0.3 22 10.2 SE 22 37 12 20 1010.2 1010.1 0.0
25/11:00pm 23.2 17.7 0.3 22 10.5 SSE 19 24 10 13 1010.6 1010.5 0.0
25/10:30pm 22.6 17.7 -0.2 22 10.3 S 15 19 8 10 1010.7 1010.6 0.0
25/10:00pm 24.1 18.4 0.4 21 10.9 SE 20 26 11 14 1010.4 1010.3 0.0
25/09:30pm 24.2 19.4 0.5 21 11.0 SE 15 20 8 11 1010.3 1010.2 0.0
25/09:00pm 24.0 19.2 0.4 21 10.9 ESE 15 17 8 9 1010.0 1009.9 0.0
25/08:30pm 24.9 20.6 1.1 21 11.2 ESE 13 19 7 10 1009.7 1009.6 0.0
25/08:00pm 25.6 20.5 1.0 20 11.6 ESE 17 19 9 10 1009.1 1009.0 0.0
25/07:30pm 25.8 20.7 0.5 19 11.9 ESE 17 20 9 11 1008.7 1008.6 0.0
25/07:00pm 26.4 21.7 0.9 19 12.1 ESE 15 19 8 10 1008.4 1008.3 0.0
25/06:30pm 27.7 23.0 1.2 18 12.8 SE 15 20 8 11 1008.4 1008.3 0.0
25/06:00pm 28.7 23.0 0.4 16 13.5 ESE 20 24 11 13 1008.1 1008.0 0.0
25/05:30pm 29.9 24.2 0.5 15 14.2 ESE 20 30 11 16 1008.0 1007.9 0.0
25/05:00pm 30.4 23.6 0.9 15 14.4 ESE 26 33 14 18 1007.9 1007.8 0.0
25/04:30pm 31.0 24.5 0.4 14 14.9 ESE 24 37 13 20 1007.6 1007.5 0.0
25/04:00pm 31.2 24.4 0.6 14 14.9 ESE 26 33 14 18 1007.7 1007.6 0.0
25/03:30pm 31.2 24.4 0.6 14 14.9 ESE 26 35 14 19 1007.7 1007.6 0.0
25/03:00pm 31.0 24.5 0.4 14 14.9 ESE 24 33 13 18 1008.3 1008.2 0.0
25/02:30pm 31.1 24.3 0.5 14 14.9 ESE 26 37 14 20 1008.5 1008.4 0.0
25/02:00pm 30.6 23.7 0.1 14 14.7 ESE 26 33 14 18 1009.1 1009.0 0.0
25/01:30pm 30.2 24.1 0.7 15 14.3 ESE 22 32 12 17 1009.7 1009.6 0.0
25/01:00pm 29.7 23.0 1.2 16 13.9 ESE 26 35 14 19 1010.0 1009.9 0.0
25/12:30pm 28.6 21.9 1.2 17 13.3 SE 26 39 14 21 1010.3 1010.2 0.0
25/12:14pm 29.1 21.9 0.7 16 13.7 ESE 28 48 15 26 1010.5 1010.4 0.0
25/12:00pm 28.5 21.4 1.1 17 13.2 ESE 28 39 15 21 1010.9 1010.8 0.0
25/11:30am 27.9 20.4 1.4 18 12.8 E 30 43 16 23 1011.1 1011.0 0.0
25/11:00am 26.8 19.3 1.3 19 12.2 ESE 30 43 16 23 1011.8 1011.7 0.0
25/10:30am 25.9 18.0 1.2 20 11.7 ESE 32 41 17 22 1012.3 1012.2 0.0
25/10:00am 25.7 17.7 1.8 21 11.4 ESE 33 44 18 24 1012.4 1012.3 0.0
25/09:30am 25.2 17.3 2.0 22 11.1 ESE 33 43 18 23 1012.8 1012.7 0.0
25/09:00am 23.9 15.6 2.1 24 10.4 ESE 35 44 19 24 1012.8 1012.7 0.0
25/08:30am 22.5 13.7 1.5 25 9.8 ESE 37 44 20 24 1012.6 1012.5 0.0
25/08:00am 21.9 14.1 1.6 26 9.4 ESE 32 39 17 21 1012.7 1012.6 0.0
25/07:30am 20.3 13.2 1.2 28 8.7 ESE 28 33 15 18 1012.0 1011.9 0.0
25/07:00am 19.6 14.0 1.1 29 8.3 ESE 20 28 11 15 1011.9 1011.8 0.0
25/06:30am 18.9 13.3 1.0 30 8.0 ESE 20 24 11 13 1011.4 1011.3 0.0
25/06:00am 19.0 13.0 1.1 30 8.0 SE 22 30 12 16 1010.8 1010.7 0.0
25/05:30am 19.3 12.1 0.8 29 8.3 SE 28 33 15 18 1010.2 1010.1 0.0
25/05:00am 19.5 12.7 0.5 28 8.5 SE 26 32 14 17 1009.7 1009.6 0.0
25/04:30am 19.3 13.1 -0.1 27 8.5 SE 22 30 12 16 1008.9 1008.8 0.0
25/04:00am 19.5 13.7 0.0 27 8.6 SE 20 30 11 16 1008.4 1008.3 0.0
25/03:30am 20.0 13.4 -0.1 26 8.9 SE 24 32 13 17 1008.0 1007.9 0.0
25/03:00am 19.9 13.6 -0.7 25 9.0 SE 22 32 12 17 1007.8 1007.7 0.0
25/02:30am 19.9 14.3 -0.1 26 8.8 SE 19 26 10 14 1008.1 1008.0 0.0
25/02:00am 20.9 14.8 0.2 25 9.3 SE 22 33 12 18 1008.1 1008.0 0.0
25/01:30am 20.9 15.1 -0.4 24 9.4 SSE 20 28 11 15 1008.5 1008.4 0.0
25/01:00am 20.5 15.2 -0.7 24 9.3 SSE 17 22 9 12 1008.7 1008.6 0.0
25/12:30am 20.8 15.9 -0.5 24 9.4 S 15 20 8 11 1009.1 1009.0 0.0
25/12:00am 20.8 15.8 -1.1 23 9.6 S 15 19 8 10 1009.4 1009.3 0.0
 
Date/Time
CST
Temp
°C
App
Temp
°C
Dew
Point
°C
Rel
Hum
%
Delta-T
°C
Wind Press
QNH
hPa
Press
MSL
hPa
Rain since
9am
mm
Dir  Spd
km/h
Gust
km/h
Spd
kts
Gust
kts
24/11:30pm 20.9 16.3 -1.0 23 9.6 S 13 17 7 9 1009.5 1009.4 0.0
24/11:00pm 20.9 16.9 0.2 25 9.3 SSW 11 13 6 7 1009.7 1009.6 0.0
24/10:30pm 21.1 17.7 -0.8 23 9.6 SSW 7 11 4 6 1009.6 1009.5 0.0
24/10:00pm 22.2 18.5 0.1 23 10.0 S 9 11 5 6 1009.5 1009.4 0.0
24/09:30pm 23.5 19.8 -0.1 21 10.7 SSE 9 11 5 6 1009.5 1009.4 0.0
24/09:00pm 24.5 20.4 0.1 20 11.2 S 11 13 6 7 1009.3 1009.2 0.0
24/08:30pm 24.0 20.0 0.4 21 10.9 SSW 11 13 6 7 1009.0 1008.9 0.0
24/08:00pm 25.0 21.3 -0.2 19 11.6 S 9 13 5 7 1008.6 1008.5 0.0
24/07:30pm 26.1 22.1 0.7 19 12.0 SSW 11 13 6 7 1008.2 1008.1 0.0
24/07:00pm 26.9 22.5 0.6 18 12.4 SW 13 17 7 9 1007.9 1007.8 0.0
24/06:30pm 27.7 23.3 0.5 17 12.9 SW 13 17 7 9 1007.6 1007.5 0.0
24/06:00pm 29.1 24.4 0.7 16 13.7 SSW 15 20 8 11 1006.9 1006.8 0.0
24/05:30pm 30.3 25.4 1.7 16 14.1 SW 17 22 9 12 1006.7 1006.6 0.0
24/05:00pm 31.3 27.1 1.6 15 14.7 SW 13 20 7 11 1006.6 1006.5 0.0
24/04:30pm 31.4 26.5 1.7 15 14.8 WSW 17 22 9 12 1006.6 1006.5 0.0
24/04:00pm 31.5 26.2 1.8 15 14.8 WSW 19 26 10 14 1006.4 1006.3 0.0
24/03:30pm 31.7 27.9 1.9 15 14.9 WSW 11 17 6 9 1006.4 1006.3 0.0
24/03:00pm 31.3 27.6 2.5 16 14.5 SW 11 19 6 10 1006.6 1006.5 0.0
24/02:30pm 31.2 26.7 2.4 16 14.5 WSW 15 30 8 16 1006.7 1006.6 0.0
24/02:00pm 31.7 27.3 2.8 16 14.7 WSW 15 32 8 17 1006.7 1006.6 0.0
24/01:30pm 31.3 27.4 3.4 17 14.3 SW 13 22 7 12 1006.9 1006.8 0.0
24/01:00pm 30.5 26.1 2.7 17 14.0 SW 15 24 8 13 1007.1 1007.0 0.0
24/12:30pm 30.7 26.0 2.9 17 14.1 WSW 17 24 9 13 1007.4 1007.3 0.0
24/12:00pm 30.7 26.3 2.9 17 14.1 SSW 15 24 8 13 1007.8 1007.7 0.0
24/11:30am 30.3 27.0 2.5 17 13.9 SSW 9 15 5 8 1008.0 1007.9 0.0
24/11:00am 29.9 26.3 3.0 18 13.5 SSW 11 20 6 11 1008.4 1008.3 0.0
24/10:30am 29.3 26.5 3.3 19 13.1 SSE 7 15 4 8 1008.7 1008.6 0.0
24/10:00am 28.7 25.1 2.8 19 12.9 SSE 11 17 6 9 1009.0 1008.9 0.0
24/09:30am 28.3 25.1 3.2 20 12.6 SE 9 15 5 8 1009.3 1009.2 0.0
24/09:00am 26.7 23.5 3.2 22 11.6 SSE 9 13 5 7 1009.4 1009.3 0.0
24/08:30am 25.0 23.6 3.6 25 10.6 CALM 0 0 0 0 1009.2 1009.1 0.0
24/08:00am 22.1 19.2 2.8 28 9.2 SSW 7 9 4 5 1008.9 1008.8 0.0
24/07:30am 19.8 16.9 2.6 32 8.0 SSW 7 9 4 5 1008.6 1008.5 0.0
24/07:00am 18.1 15.0 1.6 33 7.4 SW 7 7 4 4 1008.3 1008.2 0.0
24/06:30am 17.0 13.8 1.0 34 7.1 SW 7 9 4 5 1007.9 1007.8 0.0
24/06:00am 16.6 13.0 0.7 34 6.9 WSW 9 9 5 5 1007.3 1007.2 0.0
24/05:30am 16.6 14.7 0.7 34 6.9 CALM 0 0 0 0 1007.0 1006.9 0.0
24/05:00am 16.8 14.8 -0.4 31 7.3 CALM 0 0 0 0 1006.5 1006.4 0.0
24/04:30am 17.8 16.0 0.9 32 7.5 CALM 0 0 0 0 1006.0 1005.9 0.0
24/04:00am 19.6 18.0 2.5 32 7.9 CALM 0 0 0 0 1005.8 1005.7 0.0
24/03:30am 20.1 17.4 2.9 32 8.1 ESE 6 9 3 5 1005.8 1005.7 0.0
24/03:00am 19.1 16.3 2.0 32 7.8 ESE 6 9 3 5 1005.7 1005.6 0.0
24/02:30am 19.9 17.1 2.3 31 8.2 E 6 11 3 6 1005.9 1005.8 0.0
24/02:00am 20.8 18.0 3.1 31 8.4 S 7 9 4 5 1005.6 1005.5 0.0
24/01:30am 20.7 17.9 2.0 29 8.7 SSW 6 7 3 4 1005.6 1005.5 0.0
24/01:00am 21.5 18.6 2.7 29 8.9 SW 7 9 4 5 1005.6 1005.5 0.0
24/12:30am 22.1 19.3 3.3 29 9.1 SW 7 9 4 5 1005.6 1005.5 0.0
24/12:00am 22.9 19.3 2.9 27 9.6 SW 11 13 6 7 1005.4 1005.3 0.0
 
Date/Time
CST
Temp
°C
App
Temp
°C
Dew
Point
°C
Rel
Hum
%
Delta-T
°C
Wind Press
QNH
hPa
Press
MSL
hPa
Rain since
9am
mm
Dir  Spd
km/h
Gust
km/h
Spd
kts
Gust
kts
23/11:30pm 23.8 20.2 3.2 26 10.0 SW 11 13 6 7 1005.2 1005.1 0.0
23/11:00pm 24.1 20.9 2.9 25 10.2 SW 9 11 5 6 1005.4 1005.3 0.0
23/10:30pm 24.7 21.5 2.8 24 10.6 SSW 9 11 5 6 1005.5 1005.4 0.0
23/10:00pm 25.8 21.6 1.8 21 11.5 SW 13 15 7 8 1005.6 1005.5 0.0
23/09:30pm 26.5 22.2 1.0 19 12.1 SW 13 15 7 8 1005.4 1005.3 0.0
23/09:00pm 27.1 22.5 -0.9 16 12.9 SW 13 17 7 9 1005.2 1005.1 0.0
23/08:30pm 26.8 22.0 -2.9 14 13.2 SW 13 17 7 9 1005.0 1004.9 0.0
23/08:00pm 27.9 23.0 -3.0 13 13.8 W 13 15 7 8 1004.9 1004.8 0.0
23/07:30pm 29.1 24.2 -3.2 12 14.6 W 13 15 7 8 1004.4 1004.3 0.0
23/07:00pm 29.9 24.4 -5.0 10 15.3 W 15 17 8 9 1004.0 1003.9 0.0
23/06:30pm 31.8 26.5 -3.5 10 16.2 W 15 17 8 9 1003.7 1003.6 0.0
23/06:00pm 34.0 28.7 -3.3 9 17.4 W 15 17 8 9 1003.4 1003.3 0.0
23/05:30pm 36.0 29.8 -3.4 8 18.6 W 20 24 11 13 1003.0 1002.9 0.0
23/05:00pm 37.1 30.2 -2.6 8 19.1 W 24 32 13 17 1003.1 1003.0 0.0
23/04:30pm 37.6 29.8 -4.0 7 19.7 WNW 28 37 15 20 1002.9 1002.8 0.0
23/04:00pm 38.1 30.3 -3.7 7 19.9 W 28 37 15 20 1002.9 1002.8 0.0
23/03:30pm 38.3 29.2 -3.5 7 20.1 W 35 46 19 25 1002.9 1002.8 0.0

Other Formats:

Comma delimited format used in spreadsheet applications
http://www.bom.gov.au/fwo/IDS60801/IDS60801.95481.axf

JavaScript Object Notation format (JSON) in row-major order
http://www.bom.gov.au/fwo/IDS60801/IDS60801.95481.json